createdAt,value
2022-11-27T00:00:00.549Z,68.4
2022-11-27T00:01:00.318Z,68.6
2022-11-27T00:02:01.011Z,68.7
2022-11-27T00:03:00.501Z,68.5
2022-11-27T00:04:00.503Z,68.4
2022-11-27T00:05:00.313Z,68.2
2022-11-27T00:06:00.383Z,68.2
2022-11-27T00:07:00.307Z,68.0
2022-11-27T00:08:00.339Z,67.9
2022-11-27T00:09:00.249Z,68.0
2022-11-27T00:10:00.309Z,67.9
2022-11-27T00:11:00.282Z,67.6
2022-11-27T00:12:00.465Z,67.6
2022-11-27T00:13:00.303Z,67.3
2022-11-27T00:14:00.427Z,67.1
2022-11-27T00:15:00.324Z,67.0
2022-11-27T00:16:00.316Z,66.9
2022-11-27T00:17:00.343Z,66.8
2022-11-27T00:18:00.455Z,66.8
2022-11-27T00:19:00.321Z,66.5
2022-11-27T00:20:00.288Z,66.2
2022-11-27T00:21:00.441Z,66.1
2022-11-27T00:22:00.265Z,65.9
2022-11-27T00:23:00.445Z,65.8
2022-11-27T00:24:00.478Z,65.8
2022-11-27T00:25:00.328Z,65.8
2022-11-27T00:26:00.301Z,66.0
2022-11-27T00:27:00.290Z,65.9
2022-11-27T00:28:00.293Z,66.0
2022-11-27T00:29:00.272Z,65.9
2022-11-27T00:30:00.457Z,65.9
2022-11-27T00:31:00.325Z,65.4
2022-11-27T00:32:00.322Z,65.0
2022-11-27T00:33:00.332Z,64.9
2022-11-27T00:34:00.295Z,64.9
2022-11-27T00:35:00.404Z,64.7
2022-11-27T00:36:00.413Z,64.7
2022-11-27T00:37:00.282Z,64.7
2022-11-27T00:38:00.374Z,64.8
2022-11-27T00:39:00.336Z,64.8
2022-11-27T00:40:00.282Z,64.9
2022-11-27T00:41:00.274Z,64.8
2022-11-27T00:42:00.498Z,64.8
2022-11-27T00:43:00.294Z,64.9
2022-11-27T00:44:00.281Z,64.9
2022-11-27T00:45:00.307Z,65.0
2022-11-27T00:46:00.317Z,65.1
2022-11-27T00:47:00.368Z,65.0
2022-11-27T00:48:00.457Z,65.1
2022-11-27T00:49:00.365Z,65.2
2022-11-27T00:50:00.274Z,65.3
2022-11-27T00:51:00.289Z,65.5
2022-11-27T00:52:00.399Z,65.5
2022-11-27T00:53:00.305Z,65.6
2022-11-27T00:54:00.520Z,65.5
2022-11-27T00:55:00.367Z,65.7
2022-11-27T00:56:00.297Z,65.7
2022-11-27T00:57:00.282Z,65.9
2022-11-27T00:58:00.254Z,66.0
2022-11-27T00:59:00.369Z,66.2
2022-11-27T01:00:00.448Z,66.4
2022-11-27T01:01:00.295Z,66.6
2022-11-27T01:02:00.413Z,66.8
2022-11-27T01:03:00.371Z,66.8
2022-11-27T01:04:00.386Z,66.7
2022-11-27T01:05:00.361Z,67.0
2022-11-27T01:06:00.488Z,67.0
2022-11-27T01:07:00.433Z,67.0
2022-11-27T01:08:00.717Z,67.0
2022-11-27T01:09:00.579Z,67.1
2022-11-27T01:10:00.561Z,67.0
2022-11-27T01:11:00.322Z,67.3
2022-11-27T01:12:00.479Z,67.2
2022-11-27T01:13:00.305Z,67.0
2022-11-27T01:14:00.250Z,66.9
2022-11-27T01:15:00.285Z,67.2
2022-11-27T01:16:00.373Z,66.8
2022-11-27T01:17:00.310Z,66.9
2022-11-27T01:18:00.518Z,66.7
2022-11-27T01:19:00.410Z,66.7
2022-11-27T01:20:00.308Z,66.9
2022-11-27T01:21:00.329Z,67.2
2022-11-27T01:22:00.280Z,67.4
2022-11-27T01:23:00.275Z,67.5
2022-11-27T01:24:00.447Z,67.5
2022-11-27T01:25:00.310Z,67.5
2022-11-27T01:26:00.310Z,67.5
2022-11-27T01:27:00.306Z,67.8
2022-11-27T01:28:00.303Z,68.0
2022-11-27T01:29:00.283Z,68.1
2022-11-27T01:30:00.425Z,68.2
2022-11-27T01:31:00.411Z,68.3
2022-11-27T01:32:00.274Z,68.6
2022-11-27T01:33:00.279Z,68.3
2022-11-27T01:34:00.308Z,68.3
2022-11-27T01:35:00.303Z,68.2
2022-11-27T01:36:00.411Z,68.2
2022-11-27T01:37:00.316Z,68.2
2022-11-27T01:38:00.244Z,68.0
2022-11-27T01:39:00.253Z,68.1
2022-11-27T01:40:00.356Z,68.0
2022-11-27T01:41:00.324Z,68.1
2022-11-27T01:42:00.502Z,68.2
2022-11-27T01:43:00.294Z,68.1
2022-11-27T01:44:00.314Z,68.1
2022-11-27T01:45:00.250Z,68.1
2022-11-27T01:46:00.311Z,68.1
2022-11-27T01:47:00.380Z,68.2
2022-11-27T01:48:00.454Z,68.2
2022-11-27T01:49:00.300Z,68.3
2022-11-27T01:50:00.305Z,68.3
2022-11-27T01:51:00.244Z,68.3
2022-11-27T01:52:00.301Z,68.4
2022-11-27T01:53:00.269Z,68.4
2022-11-27T01:54:00.568Z,68.3
2022-11-27T01:55:00.273Z,68.2
2022-11-27T01:56:00.245Z,68.3
2022-11-27T01:57:00.335Z,68.3
2022-11-27T01:58:00.378Z,68.3
2022-11-27T01:59:00.299Z,68.4
2022-11-27T02:00:00.575Z,68.3
2022-11-27T02:01:00.340Z,68.2
2022-11-27T02:02:00.396Z,68.2
2022-11-27T02:03:00.626Z,68.1
2022-11-27T02:04:00.474Z,68.2
2022-11-27T02:05:00.315Z,68.2
2022-11-27T02:06:00.466Z,67.9
2022-11-27T02:07:00.248Z,67.8
2022-11-27T02:08:00.383Z,67.8
2022-11-27T02:09:00.271Z,67.7
2022-11-27T02:10:00.312Z,67.7
2022-11-27T02:11:00.244Z,67.7
2022-11-27T02:12:00.413Z,67.6
2022-11-27T02:13:00.276Z,67.5
2022-11-27T02:14:00.249Z,67.4
2022-11-27T02:15:00.310Z,67.5
2022-11-27T02:16:00.315Z,67.6
2022-11-27T02:17:00.302Z,67.6
2022-11-27T02:18:00.460Z,67.3
2022-11-27T02:19:00.259Z,67.0
2022-11-27T02:20:00.308Z,66.8
2022-11-27T02:21:00.403Z,66.9
2022-11-27T02:22:00.326Z,66.9
2022-11-27T02:23:00.374Z,67.0
2022-11-27T02:24:00.495Z,67.1
2022-11-27T02:25:00.290Z,67.2
2022-11-27T02:26:00.274Z,67.3
2022-11-27T02:27:00.282Z,67.4
2022-11-27T02:28:00.244Z,67.4
2022-11-27T02:29:00.274Z,67.4
2022-11-27T02:30:00.454Z,67.4
2022-11-27T02:31:00.264Z,67.4
2022-11-27T02:32:00.312Z,67.5
2022-11-27T02:33:00.304Z,67.5
2022-11-27T02:34:00.332Z,67.1
2022-11-27T02:35:00.340Z,67.1
2022-11-27T02:36:00.545Z,66.7
2022-11-27T02:37:00.353Z,66.8
2022-11-27T02:38:00.361Z,66.8
2022-11-27T02:39:00.274Z,66.7
2022-11-27T02:40:00.267Z,66.7
2022-11-27T02:41:00.273Z,66.8
2022-11-27T02:42:02.237Z,66.7
2022-11-27T02:43:00.377Z,66.7
2022-11-27T02:44:00.284Z,66.8
2022-11-27T02:45:00.276Z,66.6
2022-11-27T02:46:00.300Z,66.7
2022-11-27T02:47:00.252Z,66.8
2022-11-27T02:48:00.524Z,66.8
2022-11-27T02:49:00.278Z,66.8
2022-11-27T02:50:00.244Z,66.7
2022-11-27T02:51:00.407Z,66.7
2022-11-27T02:52:00.269Z,66.6
2022-11-27T02:53:00.247Z,66.5
2022-11-27T02:54:00.425Z,66.2
2022-11-27T02:55:00.304Z,66.2
2022-11-27T02:56:00.303Z,66.3
2022-11-27T02:57:00.303Z,66.4
2022-11-27T02:58:00.270Z,66.5
2022-11-27T02:59:00.244Z,66.4
2022-11-27T03:00:00.425Z,66.5
2022-11-27T03:01:00.306Z,66.4
2022-11-27T03:02:00.371Z,66.5
2022-11-27T03:03:00.460Z,66.6
2022-11-27T03:04:00.271Z,66.8
2022-11-27T03:05:00.300Z,66.8
2022-11-27T03:06:00.605Z,66.9
2022-11-27T03:07:00.323Z,66.8
2022-11-27T03:08:00.341Z,67.0
2022-11-27T03:09:00.305Z,67.1
2022-11-27T03:10:00.304Z,67.1
2022-11-27T03:11:00.241Z,67.1
2022-11-27T03:12:00.444Z,67.0
2022-11-27T03:13:00.303Z,67.0
2022-11-27T03:14:00.272Z,67.0
2022-11-27T03:15:00.343Z,67.0
2022-11-27T03:16:00.307Z,66.8
2022-11-27T03:17:00.269Z,66.8
2022-11-27T03:18:00.475Z,66.8
2022-11-27T03:19:00.271Z,66.7
2022-11-27T03:20:00.247Z,66.6
2022-11-27T03:21:00.364Z,66.7
2022-11-27T03:22:00.241Z,66.8
2022-11-27T03:23:00.353Z,66.8
2022-11-27T03:24:00.417Z,67.0
2022-11-27T03:25:00.270Z,67.1
2022-11-27T03:26:00.380Z,67.2
2022-11-27T03:27:00.354Z,67.3
2022-11-27T03:28:00.384Z,67.5
2022-11-27T03:29:00.303Z,67.7
2022-11-27T03:30:00.534Z,67.7
2022-11-27T03:31:00.331Z,67.8
2022-11-27T03:32:00.304Z,68.0
2022-11-27T03:33:00.341Z,68.4
2022-11-27T03:34:00.350Z,68.3
2022-11-27T03:35:00.245Z,68.1
2022-11-27T03:36:00.518Z,68.2
2022-11-27T03:37:00.446Z,68.2
2022-11-27T03:38:00.251Z,68.3
2022-11-27T03:39:00.271Z,68.5
2022-11-27T03:40:00.269Z,68.6
2022-11-27T03:41:00.308Z,68.8
2022-11-27T03:42:00.387Z,68.9
2022-11-27T03:43:00.271Z,68.9
2022-11-27T03:44:00.298Z,69.0
2022-11-27T03:45:00.352Z,69.0
2022-11-27T03:46:00.338Z,69.0
2022-11-27T03:47:00.321Z,69.0
2022-11-27T03:48:00.461Z,69.0
2022-11-27T03:49:00.278Z,68.9
2022-11-27T03:50:00.256Z,68.9
2022-11-27T03:51:00.283Z,68.9
2022-11-27T03:52:00.439Z,68.9
2022-11-27T03:53:00.426Z,69.0
2022-11-27T03:54:00.391Z,69.0
2022-11-27T03:55:00.302Z,69.0
2022-11-27T03:56:03.177Z,68.9
2022-11-27T03:57:00.283Z,68.8
2022-11-27T03:58:00.273Z,68.8
2022-11-27T03:59:00.325Z,68.8
2022-11-27T04:00:00.429Z,68.9
2022-11-27T04:01:00.314Z,68.9
2022-11-27T04:02:00.356Z,69.0
2022-11-27T04:03:00.318Z,68.9
2022-11-27T04:04:00.363Z,69.0
2022-11-27T04:05:00.254Z,68.9
2022-11-27T04:06:00.401Z,68.8
2022-11-27T04:07:00.339Z,68.7
2022-11-27T04:08:00.298Z,68.7
2022-11-27T04:09:00.351Z,68.7
2022-11-27T04:10:00.281Z,68.7
2022-11-27T04:11:00.329Z,68.6
2022-11-27T04:12:00.477Z,68.5
2022-11-27T04:13:00.290Z,68.6
2022-11-27T04:14:00.251Z,68.6
2022-11-27T04:15:00.315Z,68.4
2022-11-27T04:16:00.316Z,68.5
2022-11-27T04:17:00.285Z,68.5
2022-11-27T04:18:00.504Z,68.5
2022-11-27T04:19:00.282Z,68.6
2022-11-27T04:20:00.306Z,68.5
2022-11-27T04:21:00.270Z,68.4
2022-11-27T04:22:00.309Z,68.4
2022-11-27T04:23:00.354Z,68.5
2022-11-27T04:24:00.390Z,68.6
2022-11-27T04:25:00.279Z,68.6
2022-11-27T04:26:00.251Z,68.7
2022-11-27T04:27:00.274Z,68.7
2022-11-27T04:28:00.332Z,68.7
2022-11-27T04:29:00.339Z,68.8
2022-11-27T04:30:00.615Z,68.9
2022-11-27T04:31:00.409Z,69.2
2022-11-27T04:32:00.308Z,69.3
2022-11-27T04:33:00.327Z,69.3
2022-11-27T04:34:00.359Z,69.5
2022-11-27T04:35:00.276Z,69.6
2022-11-27T04:36:00.489Z,69.7
2022-11-27T04:37:00.315Z,69.7
2022-11-27T04:38:00.417Z,69.8
2022-11-27T04:39:00.273Z,69.8
2022-11-27T04:40:00.252Z,69.9
2022-11-27T04:41:00.256Z,70.0
2022-11-27T04:42:00.402Z,70.1
2022-11-27T04:43:00.255Z,70.0
2022-11-27T04:44:00.284Z,70.0
2022-11-27T04:45:00.277Z,70.1
2022-11-27T04:46:00.279Z,70.0
2022-11-27T04:47:00.377Z,69.9
2022-11-27T04:48:00.506Z,69.9
2022-11-27T04:49:00.408Z,70.0
2022-11-27T04:50:00.328Z,69.8
2022-11-27T04:51:00.379Z,69.7
2022-11-27T04:52:00.311Z,69.7
2022-11-27T04:53:00.390Z,69.7
2022-11-27T04:54:00.390Z,69.7
2022-11-27T04:55:00.675Z,69.6
2022-11-27T04:56:00.251Z,69.5
2022-11-27T04:57:00.296Z,69.4
2022-11-27T04:58:00.248Z,69.5
2022-11-27T04:59:00.316Z,69.5
2022-11-27T05:00:00.471Z,69.3
2022-11-27T05:01:00.384Z,69.2
2022-11-27T05:02:00.335Z,69.1
2022-11-27T05:03:00.409Z,69.1
2022-11-27T05:04:00.332Z,68.8
2022-11-27T05:05:00.351Z,68.6
2022-11-27T05:06:00.518Z,68.5
2022-11-27T05:07:00.371Z,68.5
2022-11-27T05:08:00.442Z,68.4
2022-11-27T05:09:00.440Z,68.3
2022-11-27T05:10:00.260Z,68.1
2022-11-27T05:11:00.247Z,68.0
2022-11-27T05:12:00.465Z,67.9
2022-11-27T05:13:00.308Z,67.9
2022-11-27T05:14:00.279Z,67.5
2022-11-27T05:15:04.193Z,67.2
2022-11-27T05:16:00.334Z,67.1
2022-11-27T05:17:00.280Z,66.8
2022-11-27T05:18:00.460Z,66.5
2022-11-27T05:19:00.276Z,65.8
2022-11-27T05:20:00.259Z,65.2
2022-11-27T05:21:00.262Z,64.4
2022-11-27T05:22:00.281Z,59.4
2022-11-27T05:23:00.330Z,54.9
2022-11-27T05:24:00.447Z,58.0
2022-11-27T05:25:00.400Z,58.6
2022-11-27T05:26:00.246Z,55.8
2022-11-27T05:27:00.290Z,56.4
2022-11-27T05:28:00.279Z,57.0
2022-11-27T05:29:00.313Z,57.2
2022-11-27T05:30:00.412Z,53.3
2022-11-27T05:31:00.332Z,46.9
2022-11-27T05:32:00.278Z,48.7
2022-11-27T05:33:00.284Z,50.3
2022-11-27T05:34:00.250Z,52.1
2022-11-27T05:35:00.276Z,53.3
2022-11-27T05:36:00.422Z,53.8
2022-11-27T05:37:00.312Z,53.9
2022-11-27T05:38:00.279Z,53.4
2022-11-27T05:39:00.379Z,51.2
2022-11-27T05:40:00.313Z,50.7
2022-11-27T05:41:00.316Z,52.9
2022-11-27T05:42:00.417Z,53.9
2022-11-27T05:43:00.288Z,54.6
2022-11-27T05:44:00.249Z,55.1
2022-11-27T05:45:00.287Z,55.6
2022-11-27T05:46:00.304Z,56.0
2022-11-27T05:47:00.382Z,56.2
2022-11-27T05:48:00.553Z,56.2
2022-11-27T05:49:00.383Z,56.1
2022-11-27T05:50:00.254Z,55.1
2022-11-27T05:51:00.311Z,46.7
2022-11-27T05:52:00.361Z,40.4
2022-11-27T05:53:00.313Z,43.1
2022-11-27T05:54:00.481Z,44.8
2022-11-27T05:55:00.510Z,37.7
2022-11-27T05:56:00.306Z,35.3
2022-11-27T05:57:00.312Z,38.3
2022-11-27T05:58:00.304Z,40.7
2022-11-27T05:59:00.308Z,42.7
2022-11-27T06:00:00.481Z,43.5
2022-11-27T06:01:00.264Z,44.3
2022-11-27T06:02:00.421Z,44.6
2022-11-27T06:03:00.446Z,41.6
2022-11-27T06:04:00.314Z,35.0
2022-11-27T06:05:00.308Z,32.1
2022-11-27T06:06:00.523Z,29.7
2022-11-27T06:07:00.279Z,28.8
2022-11-27T06:08:00.319Z,32.5
2022-11-27T06:09:00.320Z,30.7
2022-11-27T06:10:00.524Z,26.8
2022-11-27T06:11:00.254Z,29.3
2022-11-27T06:12:00.409Z,33.3
2022-11-27T06:13:00.349Z,34.3
2022-11-27T06:14:00.314Z,35.1
2022-11-27T06:15:00.356Z,36.7
2022-11-27T06:16:00.399Z,37.0
2022-11-27T06:17:00.299Z,38.6
2022-11-27T06:18:00.391Z,40.0
2022-11-27T06:19:00.280Z,40.8
2022-11-27T06:20:00.335Z,42.3
2022-11-27T06:21:00.311Z,42.7
2022-11-27T06:22:00.308Z,43.4
2022-11-27T06:23:00.311Z,43.7
2022-11-27T06:24:00.484Z,43.9
2022-11-27T06:25:00.501Z,44.6
2022-11-27T06:26:00.285Z,44.9
2022-11-27T06:27:00.249Z,45.3
2022-11-27T06:28:00.338Z,45.7
2022-11-27T06:29:00.348Z,46.0
2022-11-27T06:30:00.499Z,46.5
2022-11-27T06:31:00.379Z,47.1
2022-11-27T06:32:00.296Z,47.8
2022-11-27T06:33:00.284Z,48.2
2022-11-27T06:34:00.390Z,49.0
2022-11-27T06:35:00.303Z,49.5
2022-11-27T06:36:00.428Z,50.1
2022-11-27T06:37:00.266Z,50.4
2022-11-27T06:38:00.367Z,51.2
2022-11-27T06:39:00.286Z,51.5
2022-11-27T06:40:00.454Z,52.3
2022-11-27T06:41:00.277Z,52.7
2022-11-27T06:42:00.510Z,53.2
2022-11-27T06:43:00.315Z,53.3
2022-11-27T06:44:00.251Z,53.1
2022-11-27T06:45:00.304Z,53.1
2022-11-27T06:46:00.427Z,53.3
2022-11-27T06:47:00.307Z,53.8
2022-11-27T06:48:00.410Z,54.7
2022-11-27T06:49:00.275Z,55.5
2022-11-27T06:50:00.277Z,55.2
2022-11-27T06:51:00.277Z,54.9
2022-11-27T06:52:00.288Z,54.8
2022-11-27T06:53:00.248Z,54.5
2022-11-27T06:54:00.512Z,54.4
2022-11-27T06:55:00.418Z,55.0
2022-11-27T06:56:00.334Z,55.4
2022-11-27T06:57:00.275Z,55.5
2022-11-27T06:58:00.247Z,55.8
2022-11-27T06:59:00.318Z,55.7
2022-11-27T07:00:00.859Z,55.3
2022-11-27T07:01:00.319Z,55.3
2022-11-27T07:02:00.321Z,55.5
2022-11-27T07:03:00.322Z,55.7
2022-11-27T07:04:00.290Z,55.9
2022-11-27T07:05:00.313Z,55.9
2022-11-27T07:06:00.425Z,55.6
2022-11-27T07:07:00.248Z,55.4
2022-11-27T07:08:00.324Z,55.5
2022-11-27T07:09:00.314Z,55.6
2022-11-27T07:10:00.360Z,55.1
2022-11-27T07:11:00.401Z,54.8
2022-11-27T07:12:00.807Z,54.6
2022-11-27T07:13:00.326Z,54.3
2022-11-27T07:14:00.307Z,53.7
2022-11-27T07:15:04.023Z,53.5
2022-11-27T07:16:00.296Z,52.9
2022-11-27T07:17:00.303Z,53.3
2022-11-27T07:18:00.387Z,53.4
2022-11-27T07:19:00.307Z,53.3
2022-11-27T07:20:00.416Z,52.8
2022-11-27T07:21:00.272Z,52.0
2022-11-27T07:22:00.279Z,51.8
2022-11-27T07:23:00.255Z,52.0
2022-11-27T07:24:00.496Z,52.0
2022-11-27T07:25:00.268Z,52.0
2022-11-27T07:26:00.386Z,51.8
2022-11-27T07:27:00.376Z,51.5
2022-11-27T07:28:00.248Z,51.3
2022-11-27T07:29:00.303Z,50.8
2022-11-27T07:30:00.418Z,50.9
2022-11-27T07:31:00.257Z,51.3
2022-11-27T07:32:00.354Z,52.0
2022-11-27T07:33:00.280Z,52.3
2022-11-27T07:34:00.306Z,52.2
2022-11-27T07:35:00.317Z,51.6
2022-11-27T07:36:00.415Z,51.0
2022-11-27T07:37:00.303Z,50.0
2022-11-27T07:38:00.278Z,50.3
2022-11-27T07:39:00.247Z,50.4
2022-11-27T07:40:03.299Z,50.6
2022-11-27T07:41:00.280Z,50.7
2022-11-27T07:42:23.064Z,51.2
2022-11-27T07:43:00.276Z,51.6
2022-11-27T07:44:00.281Z,51.6
2022-11-27T07:45:00.276Z,51.8
2022-11-27T07:46:00.343Z,52.5
2022-11-27T07:47:00.277Z,53.2
2022-11-27T07:48:00.420Z,53.6
2022-11-27T07:49:00.321Z,53.8
2022-11-27T07:50:00.317Z,52.2
2022-11-27T07:51:00.274Z,52.7
2022-11-27T07:52:00.274Z,52.9
2022-11-27T07:53:00.282Z,52.8
2022-11-27T07:54:00.453Z,52.7
2022-11-27T07:55:00.257Z,52.5
2022-11-27T07:56:00.285Z,51.9
2022-11-27T07:57:00.415Z,51.9
2022-11-27T07:58:00.349Z,52.0
2022-11-27T07:59:00.332Z,52.1
2022-11-27T08:00:00.410Z,52.5
2022-11-27T08:01:00.367Z,52.1
2022-11-27T08:02:00.284Z,51.9
2022-11-27T08:03:00.260Z,52.2
2022-11-27T08:04:00.305Z,51.8
2022-11-27T08:05:00.472Z,50.9
2022-11-27T08:06:00.411Z,50.9
2022-11-27T08:07:00.293Z,51.3
2022-11-27T08:08:00.430Z,51.8
2022-11-27T08:09:00.248Z,52.2
2022-11-27T08:10:00.311Z,51.9
2022-11-27T08:11:00.310Z,50.1
2022-11-27T08:12:00.550Z,50.7
2022-11-27T08:13:00.592Z,50.7
2022-11-27T08:14:00.284Z,50.4
2022-11-27T08:15:00.276Z,50.4
2022-11-27T08:16:00.378Z,47.7
2022-11-27T08:17:00.342Z,39.1
2022-11-27T08:18:00.454Z,32.8
2022-11-27T08:19:00.253Z,29.6
2022-11-27T08:20:00.312Z,26.6
2022-11-27T08:21:00.357Z,25.6
2022-11-27T08:22:00.245Z,20.9
2022-11-27T08:23:03.025Z,22.0
2022-11-27T08:24:00.504Z,22.9
2022-11-27T08:25:00.313Z,21.7
2022-11-27T08:26:00.311Z,21.2
2022-11-27T08:27:00.313Z,17.8
2022-11-27T08:28:00.398Z,18.7
2022-11-27T08:29:00.282Z,18.7
2022-11-27T08:30:00.390Z,15.4
2022-11-27T08:31:00.249Z,15.0
2022-11-27T08:32:00.330Z,16.8
2022-11-27T08:33:00.379Z,16.9
2022-11-27T08:34:00.288Z,16.1
2022-11-27T08:35:00.310Z,15.0
2022-11-27T08:36:00.765Z,13.3
2022-11-27T08:37:00.306Z,14.0
2022-11-27T08:38:00.280Z,12.3
2022-11-27T08:39:00.551Z,11.7
2022-11-27T08:40:00.307Z,12.2
2022-11-27T08:41:00.362Z,12.3
2022-11-27T08:42:00.576Z,13.1
2022-11-27T08:43:00.491Z,11.8
2022-11-27T08:44:00.584Z,11.7
2022-11-27T08:45:00.729Z,11.3
2022-11-27T08:46:00.536Z,11.5
2022-11-27T08:47:00.678Z,12.4
2022-11-27T08:48:00.791Z,12.3
2022-11-27T08:49:00.370Z,11.9
2022-11-27T08:50:00.294Z,11.1
2022-11-27T08:51:00.690Z,11.0
2022-11-27T08:52:00.628Z,12.2
2022-11-27T08:53:00.770Z,11.4
2022-11-27T08:54:00.955Z,11.6
2022-11-27T08:55:00.712Z,12.0
2022-11-27T08:56:00.734Z,12.3
2022-11-27T08:57:00.668Z,12.6
2022-11-27T08:58:00.510Z,12.1
2022-11-27T08:59:00.437Z,11.5
2022-11-27T09:00:00.538Z,11.1
2022-11-27T09:01:00.396Z,10.6
2022-11-27T09:02:00.249Z,10.5
2022-11-27T09:03:00.249Z,10.6
2022-11-27T09:04:00.351Z,11.6
2022-11-27T09:05:00.272Z,17.7
2022-11-27T09:06:00.495Z,17.6
2022-11-27T09:07:00.462Z,14.4
2022-11-27T09:08:00.378Z,13.8
2022-11-27T09:09:00.311Z,13.7
2022-11-27T09:10:00.290Z,13.5
2022-11-27T09:11:00.316Z,12.7
2022-11-27T09:12:00.447Z,12.4
2022-11-27T09:13:00.540Z,11.2
2022-11-27T09:14:00.366Z,11.6
2022-11-27T09:15:00.311Z,11.2
2022-11-27T09:16:00.454Z,11.2
2022-11-27T09:17:00.331Z,10.1
2022-11-27T09:18:00.450Z,10.6
2022-11-27T09:19:00.311Z,10.3
2022-11-27T09:20:00.304Z,10.1
2022-11-27T09:21:00.294Z,10.8
2022-11-27T09:22:00.295Z,11.6
2022-11-27T09:23:00.252Z,11.6
2022-11-27T09:24:00.531Z,11.2
2022-11-27T09:25:00.248Z,10.4
2022-11-27T09:26:00.342Z,10.6
2022-11-27T09:27:00.303Z,10.6
2022-11-27T09:28:00.367Z,11.0
2022-11-27T09:29:00.454Z,10.8
2022-11-27T09:30:00.447Z,10.4
2022-11-27T09:31:00.282Z,9.9
2022-11-27T09:32:00.475Z,10.8
2022-11-27T09:33:00.316Z,10.3
2022-11-27T09:34:00.356Z,10.3
2022-11-27T09:35:00.362Z,9.7
2022-11-27T09:36:00.412Z,10.4
2022-11-27T09:37:00.249Z,11.0
2022-11-27T09:38:00.304Z,11.4
2022-11-27T09:39:00.289Z,11.2
2022-11-27T09:40:00.286Z,11.3
2022-11-27T09:41:03.081Z,10.8
2022-11-27T09:42:00.427Z,10.0
2022-11-27T09:43:00.278Z,10.7
2022-11-27T09:44:00.326Z,10.6
2022-11-27T09:45:00.419Z,10.6
2022-11-27T09:46:00.368Z,10.1
2022-11-27T09:47:00.309Z,10.5
2022-11-27T09:48:00.458Z,10.3
2022-11-27T09:49:00.282Z,9.9
2022-11-27T09:50:00.276Z,9.5
2022-11-27T09:51:00.339Z,9.7
2022-11-27T09:52:00.409Z,9.6
2022-11-27T09:53:00.296Z,9.1
2022-11-27T09:54:00.445Z,8.6
2022-11-27T09:55:00.291Z,9.5
2022-11-27T09:56:00.402Z,10.1
2022-11-27T09:57:00.314Z,10.0
2022-11-27T09:58:00.315Z,10.3
2022-11-27T09:59:00.278Z,10.4
2022-11-27T10:00:00.433Z,10.6
2022-11-27T10:01:00.400Z,11.1
2022-11-27T10:02:00.511Z,11.3
2022-11-27T10:03:00.438Z,11.2
2022-11-27T10:04:00.289Z,10.8
2022-11-27T10:05:14.597Z,10.2
2022-11-27T10:06:00.467Z,10.7
2022-11-27T10:07:00.286Z,10.9
2022-11-27T10:08:06.079Z,11.4
2022-11-27T10:09:00.281Z,10.9
2022-11-27T10:10:00.280Z,11.3
2022-11-27T10:11:00.249Z,10.3
2022-11-27T10:12:00.525Z,10.5
2022-11-27T10:13:00.285Z,10.3
2022-11-27T10:14:00.250Z,10.2
2022-11-27T10:15:00.332Z,11.2
2022-11-27T10:16:00.572Z,12.3
2022-11-27T10:17:00.328Z,12.7
2022-11-27T10:18:00.483Z,12.5
2022-11-27T10:19:00.280Z,12.2
2022-11-27T10:20:00.336Z,12.8
2022-11-27T10:21:00.323Z,13.2
2022-11-27T10:22:00.344Z,13.3
2022-11-27T10:23:00.285Z,12.9
2022-11-27T10:24:00.523Z,13.1
2022-11-27T10:25:00.281Z,13.2
2022-11-27T10:26:00.315Z,12.9
2022-11-27T10:27:00.294Z,13.3
2022-11-27T10:28:00.255Z,13.6
2022-11-27T10:29:00.276Z,13.7
2022-11-27T10:30:00.451Z,13.0
2022-11-27T10:31:00.386Z,12.6
2022-11-27T10:32:00.351Z,13.0
2022-11-27T10:33:00.370Z,13.4
2022-11-27T10:34:00.274Z,13.5
2022-11-27T10:35:00.252Z,13.7
2022-11-27T10:36:00.562Z,13.4
2022-11-27T10:37:00.366Z,13.3
2022-11-27T10:38:05.308Z,13.1
2022-11-27T10:39:00.372Z,13.1
2022-11-27T10:40:00.299Z,13.4
2022-11-27T10:41:00.323Z,14.2
2022-11-27T10:42:00.781Z,14.0
2022-11-27T10:43:00.315Z,13.7
2022-11-27T10:44:01.787Z,13.5
2022-11-27T10:45:00.321Z,13.2
2022-11-27T10:46:00.659Z,13.9
2022-11-27T10:47:00.518Z,14.2
2022-11-27T10:48:00.634Z,14.9
2022-11-27T10:49:00.426Z,15.8
2022-11-27T10:50:00.313Z,17.2
2022-11-27T10:51:00.311Z,17.3
2022-11-27T10:52:00.302Z,17.0
2022-11-27T10:53:00.307Z,16.1
2022-11-27T10:54:00.491Z,16.2
2022-11-27T10:55:00.315Z,17.2
2022-11-27T10:56:00.275Z,16.2
2022-11-27T10:57:00.262Z,15.6
2022-11-27T10:58:00.361Z,15.6
2022-11-27T10:59:00.318Z,15.6
2022-11-27T11:00:00.608Z,15.3
2022-11-27T11:01:00.379Z,15.1
2022-11-27T11:02:00.480Z,14.8
2022-11-27T11:03:00.288Z,14.6
2022-11-27T11:04:00.437Z,14.2
2022-11-27T11:05:30.146Z,14.7
2022-11-27T11:06:20.743Z,14.8
2022-11-27T11:07:00.311Z,15.1
2022-11-27T11:08:00.319Z,15.4
2022-11-27T11:09:01.534Z,15.2
2022-11-27T11:10:00.264Z,15.6
2022-11-27T11:11:00.279Z,15.8
2022-11-27T11:12:00.531Z,15.9
2022-11-27T11:13:00.393Z,15.8
2022-11-27T11:14:00.270Z,16.8
2022-11-27T11:15:00.292Z,19.1
2022-11-27T11:16:00.294Z,21.4
2022-11-27T11:17:00.550Z,23.0
2022-11-27T11:18:00.346Z,24.6
2022-11-27T11:19:00.251Z,25.8
2022-11-27T11:20:00.275Z,27.1
2022-11-27T11:21:00.305Z,28.6
2022-11-27T11:22:00.248Z,29.6
2022-11-27T11:23:00.283Z,30.8
2022-11-27T11:24:00.381Z,32.2
2022-11-27T11:25:00.281Z,33.1
2022-11-27T11:26:00.256Z,33.6
2022-11-27T11:27:00.316Z,34.5
2022-11-27T11:28:00.256Z,35.3
2022-11-27T11:29:00.351Z,34.8
2022-11-27T11:30:00.687Z,34.5
2022-11-27T11:31:00.346Z,35.2
2022-11-27T11:32:00.439Z,35.2
2022-11-27T11:33:00.280Z,34.4
2022-11-27T11:34:00.304Z,34.8
2022-11-27T11:35:01.436Z,35.4
2022-11-27T11:36:00.464Z,35.8
2022-11-27T11:37:00.306Z,35.7
2022-11-27T11:38:00.275Z,35.9
2022-11-27T11:39:00.281Z,36.0
2022-11-27T11:40:00.250Z,36.1
2022-11-27T11:41:00.259Z,38.7
2022-11-27T11:42:00.580Z,37.1
2022-11-27T11:43:00.287Z,36.7
2022-11-27T11:44:00.308Z,38.5
2022-11-27T11:45:00.310Z,39.0
2022-11-27T11:46:00.425Z,37.1
2022-11-27T11:47:00.421Z,36.8
2022-11-27T11:48:00.446Z,37.5
2022-11-27T11:49:00.310Z,37.3
2022-11-27T11:50:00.319Z,37.0
2022-11-27T11:51:00.264Z,37.8
2022-11-27T11:52:00.292Z,38.8
2022-11-27T11:53:00.310Z,38.8
2022-11-27T11:54:00.443Z,41.4
2022-11-27T11:55:00.292Z,43.1
2022-11-27T11:56:00.296Z,41.1
2022-11-27T11:57:00.252Z,41.2
2022-11-27T11:58:00.343Z,38.1
2022-11-27T11:59:00.328Z,37.4
2022-11-27T12:00:00.502Z,37.5
2022-11-27T12:01:26.048Z,39.2
2022-11-27T12:02:00.360Z,37.8
2022-11-27T12:03:00.406Z,37.6
2022-11-27T12:04:00.387Z,37.4
2022-11-27T12:05:00.347Z,37.0
2022-11-27T12:06:00.457Z,37.4
2022-11-27T12:07:00.281Z,39.9
2022-11-27T12:08:00.416Z,38.6
2022-11-27T12:09:00.311Z,39.0
2022-11-27T12:10:00.295Z,44.0
2022-11-27T12:11:00.285Z,41.9
2022-11-27T12:12:00.449Z,40.9
2022-11-27T12:13:00.359Z,41.2
2022-11-27T12:14:00.384Z,38.2
2022-11-27T12:15:00.334Z,38.6
2022-11-27T12:16:00.329Z,39.5
2022-11-27T12:17:00.381Z,38.9
2022-11-27T12:18:00.514Z,39.0
2022-11-27T12:19:00.391Z,41.9
2022-11-27T12:20:00.604Z,41.7
2022-11-27T12:21:00.330Z,40.9
2022-11-27T12:22:00.346Z,40.5
2022-11-27T12:23:00.361Z,39.5
2022-11-27T12:24:00.506Z,39.7
2022-11-27T12:25:00.319Z,42.4
2022-11-27T12:27:00.285Z,41.7
2022-11-27T12:28:00.391Z,41.5
2022-11-27T12:29:00.310Z,40.9
2022-11-27T12:30:00.711Z,41.0
2022-11-27T12:31:00.313Z,40.1
2022-11-27T12:32:00.364Z,40.1
2022-11-27T12:33:00.338Z,40.4
2022-11-27T12:34:00.413Z,39.7
2022-11-27T12:35:00.326Z,39.7
2022-11-27T12:36:00.508Z,39.7
2022-11-27T12:37:00.255Z,38.9
2022-11-27T12:38:00.401Z,38.5
2022-11-27T12:39:00.288Z,38.2
2022-11-27T12:40:00.297Z,38.6
2022-11-27T12:41:00.337Z,38.7
2022-11-27T12:42:00.428Z,39.1
2022-11-27T12:43:00.556Z,38.9
2022-11-27T12:44:00.487Z,40.9
2022-11-27T12:45:00.424Z,41.6
2022-11-27T12:46:00.417Z,39.6
2022-11-27T12:47:00.278Z,39.0
2022-11-27T12:48:00.526Z,41.0
2022-11-27T12:49:00.431Z,41.4
2022-11-27T12:50:00.339Z,42.3
2022-11-27T12:51:00.288Z,42.0
2022-11-27T12:52:00.254Z,41.9
2022-11-27T12:53:00.330Z,41.1
2022-11-27T12:54:00.421Z,41.5
2022-11-27T12:55:00.310Z,42.0
2022-11-27T12:56:00.317Z,41.0
2022-11-27T12:57:00.304Z,40.2
2022-11-27T12:58:00.289Z,42.1
2022-11-27T12:59:00.313Z,40.9
2022-11-27T13:00:00.515Z,40.4
2022-11-27T13:01:00.328Z,37.0
2022-11-27T13:02:00.454Z,36.7
2022-11-27T13:03:00.365Z,37.9
2022-11-27T13:04:00.477Z,36.3
2022-11-27T13:05:00.604Z,35.8
2022-11-27T13:06:00.344Z,34.8
2022-11-27T13:07:00.284Z,35.1
2022-11-27T13:08:00.385Z,35.0
2022-11-27T13:09:00.318Z,35.9
2022-11-27T13:10:00.261Z,36.8
2022-11-27T13:11:00.307Z,37.2
2022-11-27T13:12:00.473Z,37.3
2022-11-27T13:13:00.351Z,38.6
2022-11-27T13:14:00.288Z,38.8
2022-11-27T13:15:00.378Z,38.3
2022-11-27T13:16:00.377Z,38.3
2022-11-27T13:17:00.348Z,37.0
2022-11-27T13:18:00.461Z,37.1
2022-11-27T13:19:00.282Z,38.0